Time;durP1;ratioP1;P1;durP2;ratioP2;P2;SDS_P1;SDS_P2;PMS_P1;PMS_P2;Temp;Humidity;BMP_temperature;BMP_pressure;BME280_temperature;BME280_humidity;BME280_pressure;Samples;Min_cycle;Max_cycle;Signal;HPM_P1;HPM_P2
2023/06/10 00:02:16;;;;;;;;;;;;;17.00;96471.00;;;;4988640;28;19928;-73
2023/06/10 00:05:07;;;;;;;9.05;6.40;;;;;16.80;96468.00;;;;4997594;28;19991;-72
2023/06/10 00:07:56;;;;;;;6.37;5.67;;;;;16.20;96469.00;;;;4990687;28;20213;-71
2023/06/10 00:10:46;;;;;;;6.80;6.10;;;;;16.10;96460.00;;;;4997873;28;20263;-72
2023/06/10 00:13:35;;;;;;;7.03;5.83;;;;;16.30;96462.00;;;;4994559;28;20252;-72
2023/06/10 00:16:24;;;;;;;5.90;5.30;;;;;16.10;96457.00;;;;4991758;28;20599;-71
2023/06/10 00:19:15;;;;;;;7.33;5.70;;;;;16.30;96469.00;;;;4990723;28;20211;-72
2023/06/10 00:22:06;;;;;;;6.33;5.73;;;;;16.60;96474.00;;;;4984311;28;20257;-72
2023/06/10 00:24:55;;;;;;;8.00;5.97;;;;;16.70;96465.00;;;;4991212;28;20222;-72
2023/06/10 00:27:44;;;;;;;8.90;6.80;;;;;16.80;96460.00;;;;4995021;28;20206;-72
2023/06/10 00:30:33;;;;;;;7.17;6.13;;;;;16.90;96459.00;;;;4992326;28;20214;-73
2023/06/10 00:33:22;;;;;;;;;;;;;16.90;96455.00;;;;4993938;28;20280;-73
2023/06/10 00:36:11;;;;;;;;;;;;;17.00;96454.00;;;;4999889;28;20134;-73
2023/06/10 00:39:01;;;;;;;;;;;;;16.70;96463.00;;;;4980988;28;19922;-72
2023/06/10 00:41:50;;;;;;;9.40;6.13;;;;;16.20;96462.00;;;;4990408;28;19928;-71
2023/06/10 00:44:39;;;;;;;6.33;5.20;;;;;16.30;96461.00;;;;4995991;28;20221;-72
2023/06/10 00:47:29;;;;;;;8.10;6.53;;;;;16.20;96448.00;;;;4990693;28;20207;-72
2023/06/10 00:50:18;;;;;;;8.17;5.23;;;;;15.80;96451.00;;;;4990910;28;20198;-72
2023/06/10 00:53:07;;;;;;;7.30;6.20;;;;;15.90;96455.00;;;;4990473;28;20236;-72
2023/06/10 00:55:58;;;;;;;7.53;5.93;;;;;15.70;96446.00;;;;4985322;28;20233;-71
2023/06/10 00:58:47;;;;;;;10.20;6.53;;;;;16.20;96448.00;;;;4991167;28;20693;-71
2023/06/10 01:01:37;;;;;;;10.07;6.17;;;;;16.40;96452.00;;;;4990090;28;20206;-72
2023/06/10 01:04:26;;;;;;;6.70;6.00;;;;;16.10;96441.00;;;;4991069;28;20772;-71
2023/06/10 01:07:22;;;;;;;7.87;5.97;;;;;16.00;96437.00;;;;4989673;28;20209;-72
2023/06/10 01:10:16;;;;;;;7.53;6.10;;;;;16.30;96444.00;;;;4992964;28;20203;-72
2023/06/10 01:13:11;;;;;;;6.90;6.20;;;;;16.40;96444.00;;;;4989684;28;20230;-72
2023/06/10 01:16:00;;;;;;;7.57;5.50;;;;;16.50;96444.00;;;;4985106;28;20261;-73
2023/06/10 01:18:49;;;;;;;9.93;5.90;;;;;16.50;96440.00;;;;4990387;28;20283;-72
2023/06/10 01:21:41;;;;;;;8.30;6.00;;;;;16.40;96443.00;;;;4989292;28;20214;-72
2023/06/10 01:24:32;;;;;;;6.23;5.63;;;;;16.40;96444.00;;;;4989364;28;20245;-72
2023/06/10 01:27:22;;;;;;;5.70;5.20;;;;;16.50;96444.00;;;;4990481;28;20202;-72
2023/06/10 01:30:17;;;;;;;6.67;5.60;;;;;16.20;96451.00;;;;4989788;28;20230;-72
2023/06/10 01:33:08;;;;;;;5.80;5.20;;;;;15.60;96448.00;;;;4993797;28;20616;-72
2023/06/10 01:35:59;;;;;;;7.90;6.00;;;;;15.90;96445.00;;;;4996162;28;20226;-73
2023/06/10 01:38:51;;;;;;;6.23;5.43;;;;;16.10;96439.00;;;;4981623;28;20199;-72
2023/06/10 01:41:41;;;;;;;10.47;5.47;;;;;16.20;96446.00;;;;4989574;28;20215;-72
2023/06/10 01:44:30;;;;;;;7.13;6.20;;;;;15.90;96441.00;;;;4994946;28;20253;-72
2023/06/10 01:47:19;;;;;;;7.27;5.43;;;;;15.70;96439.00;;;;4989616;28;20202;-72
2023/06/10 01:50:09;;;;;;;8.13;5.53;;;;;15.70;96448.00;;;;4990197;28;20207;-72
2023/06/10 01:52:59;;;;;;;6.37;5.77;;;;;15.40;96446.00;;;;4993287;28;20227;-72
2023/06/10 01:55:49;;;;;;;11.57;6.20;;;;;15.60;96444.00;;;;4985460;28;20218;-71
2023/06/10 01:58:38;;;;;;;5.77;5.17;;;;;15.50;96446.00;;;;4989553;28;20207;-72
2023/06/10 02:01:27;;;;;;;7.90;6.73;;;;;15.90;96440.00;;;;4993437;28;20216;-72
2023/06/10 02:04:17;;;;;;;8.37;6.27;;;;;16.00;96441.00;;;;4990665;28;20230;-71
2023/06/10 02:07:06;;;;;;;6.43;5.83;;;;;16.00;96443.00;;;;4984107;28;20202;-72
2023/06/10 02:09:55;;;;;;;7.37;6.43;;;;;16.10;96446.00;;;;4983806;28;20206;-72
2023/06/10 02:12:46;;;;;;;7.23;5.93;;;;;15.90;96445.00;;;;4988881;28;20687;-71
2023/06/10 02:15:35;;;;;;;7.17;6.47;;;;;15.60;96448.00;;;;4990503;28;20277;-71
2023/06/10 02:18:24;;;;;;;5.93;5.33;;;;;15.70;96449.00;;;;4989298;28;20209;-71
2023/06/10 02:21:13;;;;;;;7.40;6.27;;;;;15.80;96449.00;;;;4987966;28;20688;-72
2023/06/10 02:24:02;;;;;;;7.50;6.80;;;;;15.60;96446.00;;;;4994959;28;20227;-71
2023/06/10 02:26:52;;;;;;;12.23;6.43;;;;;15.40;96450.00;;;;4989239;28;20207;-72
2023/06/10 02:29:43;;;;;;;8.03;6.27;;;;;15.30;96449.00;;;;4988390;28;20218;-72
2023/06/10 02:32:32;;;;;;;6.73;5.93;;;;;14.90;96456.00;;;;4988242;28;20702;-72
2023/06/10 02:35:23;;;;;;;7.73;5.77;;;;;15.20;96446.00;;;;4991107;28;20799;-72
2023/06/10 02:38:13;;;;;;;7.40;6.17;;;;;15.20;96452.00;;;;4989590;28;20229;-72
2023/06/10 02:41:02;;;;;;;7.13;6.27;;;;;15.40;96461.00;;;;4994205;28;20653;-72
2023/06/10 02:43:51;;;;;;;7.97;5.77;;;;;15.30;96453.00;;;;4989137;28;20233;-72
2023/06/10 02:46:41;;;;;;;10.50;6.20;;;;;15.20;96450.00;;;;4990520;28;20947;-71
2023/06/10 02:49:30;;;;;;;7.53;6.13;;;;;15.20;96456.00;;;;4988811;28;20198;-71
2023/06/10 02:52:20;;;;;;;10.37;5.70;;;;;14.90;96461.00;;;;4987736;28;20206;-71
2023/06/10 02:55:09;;;;;;;6.90;5.67;;;;;15.20;96453.00;;;;4984291;28;20248;-71
2023/06/10 02:57:59;;;;;;;9.30;6.77;;;;;15.00;96463.00;;;;4993077;28;20713;-71
2023/06/10 03:00:48;;;;;;;6.53;5.93;;;;;15.10;96463.00;;;;4990029;28;20214;-71
2023/06/10 03:03:42;;;;;;;8.20;6.33;;;;;14.90;96471.00;;;;4987886;28;20245;-71
2023/06/10 03:06:33;;;;;;;8.23;6.00;;;;;14.70;96467.00;;;;4987184;28;20258;-70
2023/06/10 03:09:22;;;;;;;9.67;6.97;;;;;15.20;96467.00;;;;4988157;28;20206;-72
2023/06/10 03:12:11;;;;;;;8.07;7.27;;;;;15.50;96471.00;;;;4989848;28;20205;-71
2023/06/10 03:15:00;;;;;;;9.37;7.17;;;;;15.60;96466.00;;;;4983019;28;20772;-72
2023/06/10 03:17:50;;;;;;;7.23;6.33;;;;;15.60;96472.00;;;;4981360;28;20253;-71
2023/06/10 03:20:40;;;;;;;6.83;6.10;;;;;15.70;96474.00;;;;4992242;28;20218;-72
2023/06/10 03:23:29;;;;;;;9.00;7.50;;;;;15.90;96465.00;;;;4992533;28;20229;-71
2023/06/10 03:26:21;;;;;;;9.20;5.87;;;;;15.80;96475.00;;;;4991853;28;20209;-70
2023/06/10 03:29:10;;;;;;;7.87;5.90;;;;;15.90;96471.00;;;;4988731;28;20256;-72
2023/06/10 03:31:59;;;;;;;8.93;7.17;;;;;16.00;96470.00;;;;4996868;28;20706;-72
2023/06/10 03:34:48;;;;;;;9.77;6.37;;;;;16.10;96464.00;;;;4993866;28;20225;-71
2023/06/10 03:37:39;;;;;;;7.40;6.73;;;;;16.40;96484.00;;;;4992630;28;20230;-72
2023/06/10 03:40:30;;;;;;;7.73;6.00;;;;;16.40;96488.00;;;;4991740;28;20229;-73
2023/06/10 03:43:20;;;;;;;9.83;7.87;;;;;16.40;96488.00;;;;4997818;28;20222;-72
2023/06/10 03:46:09;;;;;;;9.07;8.17;;;;;16.30;96491.00;;;;4992345;28;20210;-72
2023/06/10 03:49:00;;;;;;;9.50;7.23;;;;;16.50;96495.00;;;;4991295;28;20215;-73
2023/06/10 03:51:49;;;;;;;7.70;6.60;;;;;16.50;96479.00;;;;4984702;28;20202;-73
2023/06/10 03:54:40;;;;;;;6.60;6.00;;;;;16.70;96495.00;;;;4992568;28;20235;-72
2023/06/10 03:57:29;;;;;;;7.17;6.47;;;;;16.50;96491.00;;;;4991321;28;20231;-72
2023/06/10 04:00:21;;;;;;;9.37;5.93;;;;;16.50;96488.00;;;;4991656;28;20837;-73
2023/06/10 04:03:14;;;;;;;6.57;5.93;;;;;16.60;96500.00;;;;4987166;28;20236;-73
2023/06/10 04:06:04;;;;;;;6.60;6.00;;;;;16.40;96485.00;;;;4991638;28;20203;-73
2023/06/10 04:08:53;;;;;;;6.67;5.83;;;;;16.40;96501.00;;;;4991714;28;20206;-73
2023/06/10 04:11:44;;;;;;;6.60;5.93;;;;;16.30;96500.00;;;;4991176;28;20566;-71
2023/06/10 04:14:33;;;;;;;6.30;5.70;;;;;16.00;96492.00;;;;4990265;28;20226;-72
2023/06/10 04:17:22;;;;;;;8.30;6.13;;;;;16.30;96502.00;;;;4991024;28;20237;-72
2023/06/10 04:20:11;;;;;;;6.17;5.30;;;;;16.40;96497.00;;;;4990110;28;20768;-73
2023/06/10 04:23:01;;;;;;;6.80;5.37;;;;;16.60;96501.00;;;;4984396;28;20222;-72
2023/06/10 04:25:50;;;;;;;7.33;6.17;;;;;16.30;96498.00;;;;4984917;28;20205;-73
2023/06/10 04:28:40;;;;;;;9.37;6.30;;;;;16.40;96500.00;;;;4989733;28;20217;-73
2023/06/10 04:31:29;;;;;;;8.63;6.33;;;;;16.60;96501.00;;;;4989976;28;20218;-72
2023/06/10 04:34:18;;;;;;;7.57;6.47;;;;;16.50;96497.00;;;;4991941;28;20317;-73
2023/06/10 04:37:07;;;;;;;7.40;6.60;;;;;16.70;96506.00;;;;4993977;28;20231;-73
2023/06/10 04:39:56;;;;;;;6.53;5.90;;;;;16.80;96499.00;;;;4989537;28;20210;-73
2023/06/10 04:42:46;;;;;;;7.70;6.87;;;;;16.60;96511.00;;;;4989202;28;20280;-72
2023/06/10 04:45:36;;;;;;;9.57;6.97;;;;;16.60;96506.00;;;;4997236;28;20217;-73
2023/06/10 04:48:25;;;;;;;8.67;7.00;;;;;16.40;96504.00;;;;4996553;28;20190;-70
2023/06/10 04:51:14;;;;;;;11.90;6.70;;;;;16.50;96511.00;;;;4993709;28;20203;-71
2023/06/10 04:54:03;;;;;;;10.13;6.97;;;;;16.70;96509.00;;;;4993733;28;20234;-71
2023/06/10 04:56:54;;;;;;;7.20;6.50;;;;;16.80;96509.00;;;;4992083;28;20230;-71
2023/06/10 04:59:43;;;;;;;10.13;7.70;;;;;16.90;96505.00;;;;4981900;28;20246;-71
2023/06/10 05:02:33;;;;;;;6.80;6.17;;;;;17.20;96512.00;;;;4976431;28;20586;-71
2023/06/10 05:05:22;;;;;;;8.97;6.93;;;;;17.20;96505.00;;;;4989609;28;20207;-71
2023/06/10 05:08:11;;;;;;;7.73;6.93;;;;;17.40;96507.00;;;;4989669;28;20280;-71
2023/06/10 05:11:00;;;;;;;8.47;6.87;;;;;17.60;96506.00;;;;4986332;28;20203;-71
2023/06/10 05:13:50;;;;;;;7.67;6.13;;;;;17.90;96510.00;;;;4994384;28;20225;-71
2023/06/10 05:16:39;;;;;;;7.67;6.90;;;;;17.80;96509.00;;;;4989262;28;20711;-72
2023/06/10 05:19:29;;;;;;;8.50;7.60;;;;;17.70;96512.00;;;;4988478;28;20305;-72
2023/06/10 05:22:18;;;;;;;7.03;6.37;;;;;18.00;96509.00;;;;4988997;28;21632;-72
2023/06/10 05:25:08;;;;;;;10.03;8.30;;;;;18.20;96507.00;;;;4988019;28;20681;-72
2023/06/10 05:27:57;;;;;;;10.10;7.53;;;;;18.30;96510.00;;;;4989869;28;20316;-72
2023/06/10 05:30:47;;;;;;;9.57;6.70;;;;;18.40;96507.00;;;;4987351;28;20203;-71
2023/06/10 05:33:36;;;;;;;8.17;6.83;;;;;18.10;96511.00;;;;4995518;28;20222;-72
2023/06/10 05:36:27;;;;;;;9.07;7.30;;;;;18.20;96509.00;;;;4986409;28;20211;-72
2023/06/10 05:39:16;;;;;;;10.83;6.93;;;;;18.30;96512.00;;;;4985511;28;20203;-72
2023/06/10 05:42:06;;;;;;;8.90;6.40;;;;;18.20;96507.00;;;;4982331;28;20210;-72
2023/06/10 05:44:55;;;;;;;7.10;6.40;;;;;18.70;96519.00;;;;4991781;28;20226;-71
2023/06/10 05:47:44;;;;;;;7.73;6.50;;;;;18.80;96508.00;;;;4988654;28;20199;-72
2023/06/10 05:50:38;;;;;;;8.40;7.10;;;;;18.80;96509.00;;;;4983525;28;20303;-72
2023/06/10 05:53:28;;;;;;;9.73;8.43;;;;;18.90;96512.00;;;;4987252;28;20229;-71
2023/06/10 05:56:17;;;;;;;9.23;7.83;;;;;19.00;96513.00;;;;4983977;28;20203;-72
2023/06/10 05:59:07;;;;;;;7.97;7.27;;;;;19.10;96516.00;;;;4981191;28;20237;-72
2023/06/10 06:01:56;;;;;;;8.20;7.33;;;;;19.30;96518.00;;;;4966063;28;20218;-71
2023/06/10 06:04:45;;;;;;;7.57;6.23;;;;;19.20;96518.00;;;;4988846;28;20222;-71
2023/06/10 06:07:34;;;;;;;6.97;6.27;;;;;19.00;96515.00;;;;4991604;28;20205;-71
2023/06/10 06:10:25;;;;;;;8.87;6.63;;;;;19.20;96508.00;;;;4988483;28;20210;-71
2023/06/10 06:13:14;;;;;;;8.07;6.83;;;;;19.70;96513.00;;;;4982610;28;20716;-72
2023/06/10 06:16:03;;;;;;;9.03;7.23;;;;;19.50;96509.00;;;;4985530;28;20215;-71
2023/06/10 06:18:52;;;;;;;8.87;6.77;;;;;19.90;96518.00;;;;4992621;28;20219;-71
2023/06/10 06:21:41;;;;;;;9.37;7.07;;;;;19.90;96517.00;;;;4979420;28;20587;-71
2023/06/10 06:24:30;;;;;;;9.40;7.50;;;;;20.00;96513.00;;;;4988572;28;20222;-71
2023/06/10 06:27:20;;;;;;;7.53;6.73;;;;;20.10;96514.00;;;;4994222;28;20712;-71
2023/06/10 06:30:10;;;;;;;10.70;7.17;;;;;20.10;96517.00;;;;4974781;28;20211;-71
2023/06/10 06:32:59;;;;;;;9.47;7.40;;;;;20.10;96516.00;;;;4986954;28;20611;-71
2023/06/10 06:35:49;;;;;;;8.00;7.07;;;;;20.60;96514.00;;;;4982179;28;20683;-71
2023/06/10 06:38:38;;;;;;;8.63;7.03;;;;;20.90;96515.00;;;;4972186;28;20235;-71
2023/06/10 06:41:28;;;;;;;12.10;7.87;;;;;21.00;96522.00;;;;4986254;28;20210;-71
2023/06/10 06:44:18;;;;;;;8.93;8.03;;;;;21.30;96526.00;;;;4982647;28;20227;-71
2023/06/10 06:47:08;;;;;;;7.30;6.67;;;;;21.30;96516.00;;;;4980518;28;20719;-71
2023/06/10 06:49:57;;;;;;;8.73;7.47;;;;;21.30;96525.00;;;;4990851;28;20203;-71
2023/06/10 06:52:46;;;;;;;11.50;7.20;;;;;21.40;96525.00;;;;4985359;28;20199;-71
2023/06/10 06:55:35;;;;;;;10.07;7.27;;;;;21.40;96525.00;;;;4987581;28;20203;-72
2023/06/10 06:58:24;;;;;;;11.87;7.57;;;;;21.30;96529.00;;;;4986793;28;20219;-71
2023/06/10 07:01:15;;;;;;;9.53;8.40;;;;;21.50;96529.00;;;;4985032;28;20224;-71
2023/06/10 07:04:04;;;;;;;9.83;7.33;;;;;21.90;96529.00;;;;4989370;28;20277;-71
2023/06/10 07:06:53;;;;;;;10.07;7.63;;;;;22.10;96521.00;;;;4990132;28;20202;-72
2023/06/10 07:09:42;;;;;;;9.80;7.90;;;;;22.20;96528.00;;;;4996646;28;20195;-72
2023/06/10 07:12:31;;;;;;;8.67;7.40;;;;;22.30;96527.00;;;;4985260;28;20210;-72
2023/06/10 07:15:20;;;;;;;10.23;7.30;;;;;22.10;96530.00;;;;4987152;28;20218;-71
2023/06/10 07:18:11;;;;;;;10.87;6.87;;;;;22.10;96531.00;;;;4989589;28;20233;-72
2023/06/10 07:21:00;;;;;;;10.30;7.40;;;;;22.00;96532.00;;;;4992487;28;20214;-72
2023/06/10 07:23:49;;;;;;;8.13;6.53;;;;;22.30;96532.00;;;;4990941;28;20586;-72
2023/06/10 07:26:38;;;;;;;8.50;7.30;;;;;22.50;96533.00;;;;4992070;28;20699;-72
2023/06/10 07:29:27;;;;;;;10.00;6.83;;;;;22.60;96527.00;;;;4986827;28;20202;-71
2023/06/10 07:32:16;;;;;;;8.07;7.27;;;;;22.80;96530.00;;;;4992043;28;20313;-72
2023/06/10 07:35:11;;;;;;;9.67;7.17;;;;;22.80;96529.00;;;;4990268;28;20217;-71
2023/06/10 07:38:00;;;;;;;8.57;7.77;;;;;22.70;96534.00;;;;4995112;28;20217;-72
2023/06/10 07:40:49;;;;;;;10.10;7.57;;;;;22.70;96529.00;;;;5002257;28;20216;-72
2023/06/10 07:43:38;;;;;;;8.53;5.93;;;;;22.70;96534.00;;;;5006844;28;20235;-72
2023/06/10 07:46:28;;;;;;;7.37;6.67;;;;;22.80;96532.00;;;;4990278;28;20217;-72
2023/06/10 07:49:17;;;;;;;6.87;6.27;;;;;22.80;96534.00;;;;4993115;28;20622;-72
2023/06/10 07:52:08;;;;;;;9.10;6.73;;;;;22.50;96532.00;;;;4998505;28;20206;-72
2023/06/10 07:54:58;;;;;;;9.80;6.97;;;;;22.00;96534.00;;;;4984999;28;20229;-71
2023/06/10 07:57:47;;;;;;;7.57;6.87;;;;;22.20;96539.00;;;;4995384;28;20236;-72
2023/06/10 08:00:40;;;;;;;10.03;6.20;;;;;22.00;96534.00;;;;4989319;28;20221;-71
2023/06/10 08:03:31;;;;;;;10.57;8.30;;;;;22.20;96531.00;;;;4986535;28;20227;-72
2023/06/10 08:06:20;;;;;;;10.40;6.75;;;;;22.40;96532.00;;;;4978616;28;20203;-72
2023/06/10 08:09:10;;;;;;;7.80;6.00;;;;;22.60;96528.00;;;;4988169;28;20206;-72
2023/06/10 08:12:00;;;;;;;20.57;13.73;;;;;22.70;96529.00;;;;4983913;28;20391;-72
2023/06/10 08:14:49;;;;;;;14.97;9.60;;;;;23.20;96526.00;;;;4991782;28;20234;-72
2023/06/10 08:17:39;;;;;;;11.03;8.27;;;;;23.50;96532.00;;;;4976030;28;20215;-73
2023/06/10 08:20:28;;;;;;;11.87;7.30;;;;;23.50;96525.00;;;;4978929;28;20211;-72
2023/06/10 08:23:19;;;;;;;7.93;7.13;;;;;23.00;96525.00;;;;4994510;28;20235;-72
2023/06/10 08:26:10;;;;;;;6.90;6.17;;;;;23.00;96521.00;;;;4984268;28;20207;-73
2023/06/10 08:28:59;;;;;;;7.93;6.70;;;;;23.60;96523.00;;;;4978500;28;20207;-73
2023/06/10 08:31:48;;;;;;;9.33;6.60;;;;;23.40;96525.00;;;;4988111;28;20210;-73
2023/06/10 08:34:37;;;;;;;11.90;6.97;;;;;23.40;96519.00;;;;4984761;28;20229;-73
2023/06/10 08:37:26;;;;;;;9.00;6.30;;;;;23.80;96523.00;;;;4979664;28;20210;-73
2023/06/10 08:40:16;;;;;;;7.07;6.37;;;;;23.90;96522.00;;;;4990724;28;20530;-73
2023/06/10 08:43:08;;;;;;;8.20;6.57;;;;;24.30;96534.00;;;;4985850;28;20725;-73
2023/06/10 08:46:00;;;;;;;6.93;5.93;;;;;24.20;96534.00;;;;4989846;28;20674;-73
2023/06/10 08:48:50;;;;;;;10.57;7.10;;;;;24.00;96521.00;;;;4985497;28;20261;-73
2023/06/10 08:51:41;;;;;;;9.03;7.33;;;;;24.30;96524.00;;;;4981064;28;20230;-73
2023/06/10 08:54:35;;;;;;;7.73;6.73;;;;;24.70;96526.00;;;;4983285;28;20226;-74
2023/06/10 08:57:24;;;;;;;7.50;6.30;;;;;24.40;96534.00;;;;4982754;28;20940;-73
2023/06/10 09:00:16;;;;;;;6.00;5.43;;;;;24.70;96534.00;;;;4988332;28;20281;-74
2023/06/10 09:03:08;;;;;;;8.37;6.20;;;;;24.80;96536.00;;;;4983339;28;20249;-73
2023/06/10 09:05:58;;;;;;;8.50;6.97;;;;;24.90;96525.00;;;;4997393;28;20695;-74
2023/06/10 09:08:47;;;;;;;6.60;5.93;;;;;25.00;96522.00;;;;4981519;28;20199;-73
2023/06/10 09:11:36;;;;;;;7.33;6.23;;;;;25.20;96517.00;;;;4983061;28;20234;-73
2023/06/10 09:14:26;;;;;;;6.87;6.27;;;;;25.10;96524.00;;;;4994619;28;20245;-73
2023/06/10 09:17:17;;;;;;;5.97;5.20;;;;;24.50;96515.00;;;;4981963;28;20207;-73
2023/06/10 09:20:08;;;;;;;7.57;6.70;;;;;24.70;96508.00;;;;4980554;28;20227;-73
2023/06/10 09:22:58;;;;;;;8.37;6.40;;;;;24.50;96517.00;;;;4982738;28;20723;-73
2023/06/10 09:25:52;;;;;;;7.63;6.67;;;;;24.80;96519.00;;;;4989368;28;20229;-73
2023/06/10 09:28:44;;;;;;;10.73;6.63;;;;;25.10;96523.00;;;;4988030;28;20753;-73
2023/06/10 09:31:34;;;;;;;6.10;5.50;;;;;25.40;96519.00;;;;4984615;28;20206;-72
2023/06/10 09:34:27;;;;;;;7.60;6.07;;;;;25.30;96516.00;;;;4992903;28;20280;-73
2023/06/10 09:37:21;;;;;;;6.77;6.13;;;;;25.60;96519.00;;;;4977223;28;20481;-73
2023/06/10 09:40:10;;;;;;;11.13;6.93;;;;;25.60;96511.00;;;;4987741;28;20233;-73
2023/06/10 09:43:00;;;;;;;6.50;5.57;;;;;25.40;96509.00;;;;4984717;28;20230;-74
2023/06/10 09:45:52;;;;;;;8.83;6.30;;;;;25.30;96511.00;;;;4989533;28;20272;-73
2023/06/10 09:48:43;;;;;;;7.77;6.10;;;;;25.80;96514.00;;;;4989361;28;20198;-73
2023/06/10 09:51:34;;;;;;;7.67;6.40;;;;;25.70;96512.00;;;;4963265;23;20235;-88
2023/06/10 09:54:23;;;;;;;9.57;5.77;;;;;25.60;96507.00;;;;4942086;28;20232;-88
2023/06/10 09:57:14;;;;;;;6.60;5.90;;;;;26.30;96515.00;;;;4941769;29;20220;-88
2023/06/10 10:00:21;;;;;;;6.10;5.50;;;;;26.60;96507.00;;;;4929967;29;20228;-87
2023/06/10 10:03:24;;;;;;;7.03;6.07;;;;;27.00;96507.00;;;;4942083;28;20258;-87
2023/06/10 10:06:13;;;;;;;7.90;5.73;;;;;26.60;96500.00;;;;4937436;29;20212;-86
2023/06/10 10:09:06;;;;;;;6.67;5.43;;;;;26.80;96502.00;;;;4946432;28;20686;-88
2023/06/10 10:15:41;;;;;;;5.67;5.13;;;;;27.20;96498.00;;;;4937408;29;20212;-87
2023/06/10 10:19:06;;;;;;;6.47;5.87;;;;;26.90;96494.00;;;;4944379;29;20200;-87
2023/06/10 10:21:57;;;;;;;5.20;4.70;;;;;26.00;96492.00;;;;4942795;29;20424;-87
2023/06/10 10:24:56;;;;;;;7.33;5.50;;;;;27.00;96497.00;;;;4934471;29;20238;-87
2023/06/10 10:27:52;;;;;;;6.43;4.90;;;;;27.00;96489.00;;;;4942266;28;20215;-87
2023/06/10 10:31:10;;;;;;;5.93;5.33;;;;;26.70;96485.00;;;;4930938;29;20297;-87
2023/06/10 10:34:00;;;;;;;5.67;4.63;;;;;25.90;96475.00;;;;4938849;29;20715;-87
2023/06/10 10:36:58;;;;;;;6.27;5.23;;;;;26.20;96474.00;;;;4942595;29;20221;-87
2023/06/10 10:39:49;;;;;;;6.70;5.20;;;;;26.60;96474.00;;;;4936407;28;20225;-87
2023/06/10 10:42:39;;;;;;;5.80;5.20;;;;;27.00;96477.00;;;;4929603;29;20624;-87
2023/06/10 10:45:29;;;;;;;6.20;5.60;;;;;27.50;96471.00;;;;4925867;29;20254;-86
2023/06/10 10:48:19;;;;;;;6.33;5.17;;;;;27.60;96473.00;;;;4929823;29;20217;-87
2023/06/10 10:51:08;;;;;;;5.50;4.47;;;;;27.70;96464.00;;;;4924833;29;20214;-87
2023/06/10 10:54:13;;;;;;;5.20;4.70;;;;;28.40;96446.00;;;;4926923;29;20222;-87
2023/06/10 10:57:14;;;;;;;6.07;5.30;;;;;29.00;96453.00;;;;4928884;29;20207;-87
2023/06/10 11:00:04;;;;;;;5.70;5.20;;;;;29.30;96448.00;;;;4926039;29;20223;-86
2023/06/10 11:02:54;;;;;;;5.80;5.20;;;;;28.90;96446.00;;;;4928609;28;20221;-86
2023/06/10 11:05:47;;;;;;;5.90;5.20;;;;;29.10;96445.00;;;;4930218;29;20234;-87
2023/06/10 11:08:50;;;;;;;5.65;5.25;;;;;28.70;96451.00;;;;4929445;28;20314;-87
2023/06/10 11:11:51;;;;;;;5.50;5.00;;;;;27.60;96438.00;;;;4933349;29;20688;-86
2023/06/10 11:14:56;;;;;;;6.00;5.40;;;;;28.90;96450.00;;;;4929761;29;20720;-87
2023/06/10 11:18:16;;;;;;;5.90;5.30;;;;;29.10;96450.00;;;;4931336;29;20602;-87
2023/06/10 11:21:06;;;;;;;4.97;4.47;;;;;29.30;96446.00;;;;4924482;29;20235;-86
2023/06/10 11:23:58;;;;;;;6.43;5.83;;;;;29.30;96442.00;;;;4961186;23;20252;-76
2023/06/10 11:26:47;;;;;;;5.83;4.37;;;;;28.50;96445.00;;;;5002016;28;20209;-77
2023/06/10 11:29:36;;;;;;;5.00;4.50;;;;;28.40;96446.00;;;;5000900;28;20205;-76
2023/06/10 11:32:32;;;;;;;6.63;4.87;;;;;28.00;96439.00;;;;4973630;28;20235;-77
2023/06/10 11:35:22;;;;;;;4.80;4.40;;;;;27.20;96435.00;;;;4978857;28;20246;-75
2023/06/10 11:38:11;;;;;;;4.57;4.17;;;;;27.40;96427.00;;;;4980875;28;20208;-75
2023/06/10 11:41:01;;;;;;;5.47;4.80;;;;;28.90;96420.00;;;;4983354;28;20235;-76
2023/06/10 11:43:50;;;;;;;6.13;4.10;;;;;29.30;96415.00;;;;4983114;28;20221;-73
2023/06/10 11:46:40;;;;;;;4.67;4.27;;;;;29.80;96427.00;;;;4984078;28;20699;-76
2023/06/10 11:49:30;;;;;;;4.93;4.40;;;;;29.00;96418.00;;;;4982198;28;20679;-76
2023/06/10 11:52:28;;;;;;;8.17;5.83;;;;;28.30;96425.00;;;;4985840;28;20613;-75
2023/06/10 11:55:17;;;;;;;7.30;5.80;;;;;28.80;96417.00;;;;4987671;28;20216;-78
2023/06/10 11:58:06;;;;;;;5.93;5.43;;;;;29.00;96417.00;;;;4985243;28;20205;-76
2023/06/10 12:00:57;;;;;;;6.70;6.00;;;;;27.90;96413.00;;;;4983285;28;20234;-75
2023/06/10 12:03:47;;;;;;;5.93;5.43;;;;;28.60;96412.00;;;;4990162;28;20201;-75
2023/06/10 12:06:46;;;;;;;6.53;5.73;;;;;29.10;96409.00;;;;4990860;28;20264;-75
2023/06/10 12:09:35;;;;;;;5.73;5.23;;;;;28.20;96405.00;;;;4978658;28;20242;-74
2023/06/10 12:12:25;;;;;;;6.13;5.50;;;;;29.40;96389.00;;;;4986452;28;20210;-76
2023/06/10 12:15:26;;;;;;;6.93;6.10;;;;;29.60;96391.00;;;;4992927;28;20196;-75
2023/06/10 12:18:19;;;;;;;5.63;5.13;;;;;30.20;96341.00;;;;4978626;28;20211;-75
2023/06/10 12:21:18;;;;;;;6.17;5.60;;;;;32.40;96382.00;;;;4980209;28;20113;-76
2023/06/10 12:24:10;;;;;;;4.70;4.37;;;;;32.00;96369.00;;;;4985242;28;20224;-76
2023/06/10 12:26:58;;;;;;;;;;;;;32.20;96362.00;;;;4986286;28;20194;-74
2023/06/10 12:29:53;;;;;;;;;;;;;32.20;96376.00;;;;4989922;28;19926;-74
2023/06/10 12:32:44;;;;;;;4.90;4.40;;;;;31.90;96384.00;;;;4982272;28;19921;-74
2023/06/10 12:35:33;;;;;;;5.47;4.97;;;;;30.70;96390.00;;;;4987887;28;20267;-74
2023/06/10 12:38:26;;;;;;;4.97;4.47;;;;;30.70;96387.00;;;;4979471;28;20209;-75
2023/06/10 12:41:17;;;;;;;5.40;4.95;;;;;30.80;96390.00;;;;4982611;28;20295;-75
2023/06/10 12:44:07;;;;;;;4.30;3.90;;;;;31.00;96386.00;;;;4980156;28;20211;-75
2023/06/10 12:46:56;;;;;;;5.65;5.15;;;;;30.00;96388.00;;;;4982550;28;20225;-75
2023/06/10 12:49:45;;;;;;;6.05;4.68;;;;;30.60;96378.00;;;;4981721;28;20213;-75
2023/06/10 12:52:34;;;;;;;4.50;4.10;;;;;30.80;96389.00;;;;4978514;28;20207;-75
2023/06/10 12:55:23;;;;;;;5.90;4.60;;;;;31.10;96322.00;;;;4984514;28;20264;-74
2023/06/10 12:58:14;;;;;;;4.22;3.60;;;;;28.80;96362.00;;;;4988688;28;20232;-74
2023/06/10 13:01:04;;;;;;;5.28;3.08;;;;;29.70;96389.00;;;;4985174;28;20235;-75
2023/06/10 13:03:53;;;;;;;3.00;2.78;;;;;30.40;96396.00;;;;4989272;28;20244;-75
2023/06/10 13:06:42;;;;;;;3.40;3.10;;;;;29.70;96386.00;;;;4988194;28;20205;-74
2023/06/10 13:09:31;;;;;;;3.23;2.87;;;;;29.60;96389.00;;;;4988942;28;20224;-74
2023/06/10 13:12:20;;;;;;;3.10;2.90;;;;;28.90;96384.00;;;;4988853;28;20930;-72
2023/06/10 13:15:17;;;;;;;3.50;3.10;;;;;28.60;96389.00;;;;4990855;28;20216;-72
2023/06/10 13:18:06;;;;;;;2.97;2.77;;;;;28.70;96391.00;;;;4984033;28;20544;-74
2023/06/10 13:20:55;;;;;;;3.67;2.70;;;;;28.70;96397.00;;;;4987225;28;20240;-74
2023/06/10 13:23:47;;;;;;;4.40;2.87;;;;;28.30;96408.00;;;;4989153;28;20818;-74
2023/06/10 13:26:36;;;;;;;3.37;3.07;;;;;26.80;96413.00;;;;4989956;28;20194;-73
2023/06/10 13:29:25;;;;;;;3.50;3.20;;;;;27.20;96415.00;;;;4987215;28;20212;-74
2023/06/10 13:32:15;;;;;;;3.00;2.77;;;;;27.00;96416.00;;;;4989742;28;20205;-75
2023/06/10 13:35:05;;;;;;;3.17;2.97;;;;;26.90;96423.00;;;;4978313;28;20206;-73
2023/06/10 13:37:54;;;;;;;3.33;3.03;;;;;26.20;96412.00;;;;4990611;28;20715;-73
2023/06/10 13:40:44;;;;;;;3.83;3.07;;;;;26.40;96410.00;;;;4981502;28;20224;-75
2023/06/10 13:43:33;;;;;;;3.53;3.23;;;;;26.00;96405.00;;;;4986912;28;20215;-74
2023/06/10 13:46:23;;;;;;;3.67;3.30;;;;;26.30;96406.00;;;;4978363;28;20212;-74
2023/06/10 13:49:13;;;;;;;3.97;3.50;;;;;25.90;96410.00;;;;4985452;28;20264;-74
2023/06/10 13:52:02;;;;;;;4.30;3.67;;;;;25.30;96411.00;;;;4983321;28;20195;-75
2023/06/10 13:54:51;;;;;;;6.37;3.77;;;;;25.40;96421.00;;;;4985300;28;20597;-75
2023/06/10 13:57:40;;;;;;;5.63;4.03;;;;;24.50;96417.00;;;;4989067;28;20202;-74
2023/06/10 14:00:30;;;;;;;6.50;4.53;;;;;24.30;96428.00;;;;4989323;28;20711;-74
2023/06/10 14:03:19;;;;;;;7.53;4.37;;;;;23.70;96436.00;;;;4989302;28;20210;-73
2023/06/10 14:06:09;;;;;;;11.57;5.73;;;;;23.60;96436.00;;;;4989609;28;20207;-74
2023/06/10 14:08:58;;;;;;;7.70;4.27;;;;;23.20;96452.00;;;;4983432;28;20201;-75
2023/06/10 14:11:47;;;;;;;11.05;5.20;;;;;23.20;96452.00;;;;4988971;28;20343;-74
2023/06/10 14:14:36;;;;;;;5.10;4.60;;;;;23.00;96440.00;;;;4993703;28;20782;-75
2023/06/10 14:17:26;;;;;;;6.13;5.10;;;;;23.00;96443.00;;;;4990158;28;20245;-73
2023/06/10 14:20:15;;;;;;;5.33;4.40;;;;;22.60;96445.00;;;;4980537;28;20234;-75